Bei Facebook empfehlenBei Twitter postenGoogle plusPinterest

Das Wetter im Erzgebirge am 02.09.2016

Wetter und Klima am 02.09.2016 Holzhau im Erzgebirge (630m ü.NN)
Letzte gemessene Temperatur und Uhrzeit der Messung23:45:00 Uhr12.10 °C
Temperatur (Maximum / Höchstwert) und Uhrzeit der Messung14:00:00 Uhr24.60 °C
Temperatur (Minimum / Tiefstwert) und Uhrzeit der Messung06:30:008.30 °C
Errechneter Absolutwert der Temperaturschwankungen zwischen Tmin und Tmax des Tages16.30 K
Errechnete Tagesmitteltemperatur16.02292 °C
Gesamt - Niederschlag des Tages (in flüssiger Form)0.00 Liter / m²
Luftdruck (Maximum / Höchstwert) und Zeitpunkt der Messung11:45:00 Uhr1019.50 hPa
Luftdruck (Minimum / Tiefstwert) und Zeitpunkt der Messung23:30:00 Uhr1017.30 hPa
Errechneter Absolutwert der Luftdruckschwankungen des Tages2.20 hPa
Höchste gemessene Windgeschwindigkeit und Uhrzeit der Messung23:45:00 Uhr0.00 km/h
Errechnete Windhäufigkeit in Relation zu den Messwerten des Tages0.00000 %
Niedrigste Windkühle (Windchill) und Zeitpunkt der Messung06:30:00 Uhr8.30 °C
Taupunkt (Maximum / Höchstwert) und Uhrzeit der Messung10:15:00 Uhr16.50 °C
Taupunkt (Minimum / Tiefstwert) und Uhrzeit der Messung06:30:006.90 °C
Anzahl der automatisch eingelesenen Messwerte 96

Detaillierte Wetter- und Klima- Messwerte für den 02.09.2016 in Holzhau im Erzgebirge (630m ü.NN)
ZeitTemperaturLuftdruckRel. LuftfeuchteWindWindrichtungWindchillTaupunktNiederschlag l/m²
23:45:0012.10 °C1017.40 hPa86.00 %9.80 °C 
23:30:0012.30 °C1017.30 hPa86.00 %10.00 °C 
23:15:0012.40 °C1017.40 hPa86.00 %10.10 °C 
23:00:0012.40 °C1017.40 hPa85.00 %10.00 °C 
22:45:0012.60 °C1017.30 hPa84.00 %10.00 °C 
22:30:0012.90 °C1017.40 hPa84.00 %10.30 °C 
22:15:0013.30 °C1017.40 hPa84.00 %10.70 °C 
22:00:0013.40 °C1017.30 hPa83.00 %10.60 °C 
21:45:0013.60 °C1017.30 hPa82.00 %10.60 °C 
21:30:0014.00 °C1017.50 hPa82.00 %11.00 °C 
21:15:0014.30 °C1017.50 hPa81.00 %11.10 °C 
21:00:0014.50 °C1017.60 hPa80.00 %11.10 °C 
20:45:0014.30 °C1017.60 hPa78.00 %10.50 °C 
20:30:0014.60 °C1017.70 hPa76.00 %10.40 °C 
20:15:0015.30 °C1017.50 hPa74.00 %10.70 °C 
20:00:0016.20 °C1017.30 hPa73.00 %11.40 °C 
19:45:0017.10 °C1017.40 hPa71.00 %11.80 °C 
19:30:0018.20 °C1017.60 hPa69.00 %12.40 °C 
19:15:0019.30 °C1017.50 hPa68.00 %13.20 °C 
19:00:0020.30 °C1017.50 hPa66.00 %13.70 °C 
18:45:0021.40 °C1017.40 hPa64.00 %14.30 °C 
18:30:0021.80 °C1017.40 hPa62.00 %14.20 °C 
18:15:0021.80 °C1017.50 hPa64.00 %14.70 °C 
18:00:0022.20 °C1017.50 hPa62.00 %14.60 °C 
17:45:0022.60 °C1017.70 hPa60.00 %14.40 °C 
17:30:0022.80 °C1017.80 hPa58.00 %14.10 °C 
17:15:0023.30 °C1017.90 hPa55.00 %13.80 °C 
17:00:0023.60 °C1018.00 hPa55.00 %14.00 °C 
16:45:0023.80 °C1018.00 hPa54.00 %13.90 °C 
16:30:0024.40 °C1018.40 hPa55.00 %14.80 °C 
16:15:0023.40 °C1018.40 hPa56.00 %14.10 °C 
16:00:0023.20 °C1018.40 hPa56.00 %13.90 °C 
15:45:0023.50 °C1018.60 hPa55.00 %13.90 °C 
15:30:0023.50 °C1018.40 hPa56.00 %14.20 °C 
15:15:0023.60 °C1018.50 hPa55.00 %14.00 °C 
15:00:0023.30 °C1018.50 hPa54.00 %13.50 °C 
14:45:0023.90 °C1018.50 hPa53.00 %13.70 °C 
14:30:0024.10 °C1018.70 hPa54.00 %14.20 °C 
14:15:0024.30 °C1018.60 hPa53.00 %14.10 °C 
14:00:0024.60 °C1018.50 hPa55.00 %15.00 °C 
13:45:0023.30 °C1018.70 hPa58.00 %14.60 °C 
13:30:0022.80 °C1018.80 hPa58.00 %14.10 °C 
13:15:0022.90 °C1018.80 hPa59.00 %14.50 °C 
13:00:0022.50 °C1018.90 hPa58.00 %13.80 °C 
12:45:0023.20 °C1019.10 hPa56.00 %13.90 °C 
12:30:0023.60 °C1019.20 hPa57.00 %14.60 °C 
12:15:0023.90 °C1019.10 hPa57.00 %14.90 °C 
12:00:0024.10 °C1019.30 hPa58.00 %15.30 °C 
11:45:0024.10 °C1019.50 hPa59.00 %15.60 °C 
11:30:0023.80 °C1019.30 hPa61.00 %15.80 °C 
11:15:0023.50 °C1019.30 hPa62.00 %15.80 °C 
11:00:0022.90 °C1019.00 hPa65.00 %16.00 °C 
10:45:0021.90 °C1018.90 hPa68.00 %15.70 °C 
10:30:0021.00 °C1018.90 hPa72.00 %15.80 °C 
10:15:0020.50 °C1018.80 hPa78.00 %16.50 °C 
10:00:0019.10 °C1018.70 hPa83.00 %16.10 °C 
09:45:0017.90 °C1018.70 hPa86.00 %15.50 °C 
09:30:0017.00 °C1018.70 hPa89.00 %15.20 °C 
09:15:0015.60 °C1018.70 hPa90.00 %14.00 °C 
09:00:0014.20 °C1018.80 hPa91.00 %12.80 °C 
08:45:0013.10 °C1018.60 hPa91.00 %11.70 °C 
08:30:0012.20 °C1018.70 hPa91.00 %10.80 °C 
08:15:0011.60 °C1018.70 hPa92.00 %10.30 °C 
08:00:0010.60 °C1018.80 hPa92.00 %9.40 °C 
07:45:009.60 °C1018.70 hPa92.00 %8.40 °C 
07:30:009.10 °C1018.70 hPa92.00 %7.90 °C 
07:15:008.80 °C1018.70 hPa91.00 %7.40 °C 
07:00:008.60 °C1018.70 hPa91.00 %7.20 °C 
06:45:008.40 °C1018.60 hPa91.00 %7.00 °C 
06:30:008.30 °C1018.60 hPa91.00 %6.90 °C 
06:15:008.40 °C1018.40 hPa91.00 %7.00 °C 
06:00:008.60 °C1018.50 hPa91.00 %7.20 °C 
05:45:008.80 °C1018.30 hPa91.00 %7.40 °C 
05:30:008.90 °C1018.60 hPa91.00 %7.50 °C 
05:15:008.90 °C1018.50 hPa91.00 %7.50 °C 
05:00:008.90 °C1018.60 hPa90.00 %7.40 °C 
04:45:008.90 °C1018.50 hPa90.00 %7.40 °C 
04:30:009.30 °C1018.50 hPa90.00 %7.70 °C 
04:15:009.20 °C1018.60 hPa90.00 %7.60 °C 
04:00:009.20 °C1018.50 hPa89.00 %7.50 °C 
03:45:009.30 °C1018.50 hPa90.00 %7.70 °C 
03:30:009.40 °C1018.50 hPa90.00 %7.80 °C 
03:15:009.40 °C1018.60 hPa89.00 %7.70 °C 
03:00:009.60 °C1018.60 hPa89.00 %7.90 °C 
02:45:009.80 °C1018.60 hPa89.00 %8.10 °C 
02:30:009.90 °C1018.50 hPa89.00 %8.20 °C 
02:15:009.90 °C1018.60 hPa88.00 %8.00 °C 
02:00:009.90 °C1018.60 hPa88.00 %8.00 °C 
01:45:0010.10 °C1018.60 hPa88.00 %8.20 °C 
01:30:0010.30 °C1018.60 hPa88.00 %8.40 °C 
01:15:0010.50 °C1018.70 hPa87.00 %8.40 °C 
01:00:0010.60 °C1018.70 hPa87.00 %8.50 °C 
00:45:0010.80 °C1018.80 hPa87.00 %8.70 °C 
00:30:0010.90 °C1018.70 hPa86.00 %8.70 °C 
00:15:0011.20 °C1018.70 hPa86.00 %8.90 °C 
00:00:0011.20 °C1018.80 hPa86.00 %8.90 °C 

Permanenter Link zu dieser Seite: Wetter im Erzgebirge am 02.09.2016
Performance-Info: Die Erstellung der Seite / Statistik(en) / Tabelle(n) erforderte 5 Datenbankserver-Abfrage(n) und dauerte 124 Millisekunden. (Dieser Messwert ist von der Gesamt-Auslastung des Servers abhängig.)
Erzgebirge - Wetter | Erzgebirge - Wetter (Mobilgeräte) | Komplette Klimadatenbank